Carnival Pride — H3VU — position and weather

sailwx.info

Track history (hours):
 
Tides and Currents Weather Stations Pressure Air Temp Water Temp Dewpoint Dewpoint Depression Visibility Wind Speed Wind Dir Waves Ship Positions

Carnival Pride

Operator: Carnival Cruise Lines

Last reported at 2016-Jul-25 08:24 UTC. Time now 2016-Jul-29 17:47 UTC.
Position N 36°33' W 075°34'.

Type: Ship. MMSI: 354215000.

Date/timePositionNaut miles runAvg speedWind from/ knotsBaromVisibWave heightAir tempDewpointWater temp
2016-Jul-25 08:24N 36°33' W 075°34'1718.3
2016-Jul-25 07:28N 36°47' W 075°45'1414.7
2016-Jul-25 06:33N 36°56' W 075°58'1413.2
2016-Jul-25 05:27N 37°08' W 076°08'1516.0
2016-Jul-25 04:30N 37°23' W 076°05'1515.4
2016-Jul-25 03:34N 37°37' W 076°06'1716.8
2016-Jul-25 02:33N 37°54' W 076°10'1817.6
2016-Jul-25 01:33N 38°11' W 076°15'1817.6
2016-Jul-25 00:33N 38°28' W 076°23'1717.0
2016-Jul-24 23:33N 38°45' W 076°26'1717.2
2016-Jul-24 22:33N 39°02' W 076°23'1212.4
2016-Jul-24 21:34N 39°12' W 076°31'5 5.3
2016-Jul-24 20:31N 39°16' W 076°36'0 0.0
2016-Jul-24 14:13N 39°16' W 076°36'0 0.0
2016-Jul-24 13:32N 39°16' W 076°36'1 0.7
2016-Jul-24 12:34N 39°15' W 076°35'1111.2
2016-Jul-24 11:33N 39°08' W 076°24'1716.6
2016-Jul-24 10:33N 38°52' W 076°24'2019.8
2016-Jul-24 09:34N 38°32' W 076°25'2019.8
2016-Jul-24 08:33N 38°14' W 076°15'2020.0
2016-Jul-24 07:33N 37°54' W 076°09'5418.0
2016-Jul-24 04:33N 37°00' W 076°02'1715.5
2016-Jul-24 03:26N 36°49' W 075°45'10020.3
2016-Jul-23 22:31N 35°13' W 075°12'2321.9
2016-Jul-23 21:28N 34°54' W 075°27'2820.8
2016-Jul-23 20:07N 34°32' W 075°48'1221.1
2016-Jul-23 19:33N 34°24' W 075°58'  
2016-Jul-18 07:23N 36°46' W 075°44'1214.9
2016-Jul-18 06:33N 36°54' W 075°55'1615.8
2016-Jul-18 05:33N 37°07' W 076°08'1716.7
2016-Jul-18 04:33N 37°23' W 076°05'1515.5
2016-Jul-18 03:33N 37°39' W 076°07'1716.7
2016-Jul-18 02:32N 37°56' W 076°09'2217.9
2016-Jul-18 01:19N 38°16' W 076°17'1619.6
2016-Jul-18 00:29N 38°32' W 076°25'1617.1
2016-Jul-17 23:33N 38°48' W 076°25'1717.2
2016-Jul-17 22:33N 39°05' W 076°24'1211.7
2016-Jul-17 21:31N 39°14' W 076°33'3 0.9
2016-Jul-17 18:20N 39°16' W 076°36'0 0.0
2016-Jul-17 14:22N 39°16' W 076°36'1 0.7
2016-Jul-17 12:32N 39°15' W 076°35'1111.1
2016-Jul-17 11:32N 39°08' W 076°24'1515.5
2016-Jul-17 10:33N 38°53' W 076°24'2019.9
2016-Jul-17 09:33N 38°33' W 076°26'2020.5
2016-Jul-17 08:33N 38°14' W 076°15'1919.3
2016-Jul-17 07:34N 37°55' W 076°09'5217.1
2016-Jul-17 04:33N 37°04' W 076°05'1414.3
2016-Jul-17 03:33N 36°54' W 075°53'14917.8
2016-Jul-16 19:10N 34°24' W 075°58'6421.2
2016-Jul-16 16:10N 33°37' W 076°48'  
Track history (hours):
 
Tides and Currents Weather Stations Pressure Air Temp Water Temp Dewpoint Dewpoint Depression Visibility Wind Speed Wind Dir Waves Ship Positions

Carnival Pride

Operator: Carnival Cruise Lines

Last reported at 2016-Jul-25 08:24 UTC. Time now 2016-Jul-29 17:47 UTC.
Position N 36°33' W 075°34'.

Type: Ship. MMSI: 354215000.

Date/timePositionNaut miles runAvg speedWind from/ knotsBaromVisibWave heightAir tempDewpointWater temp
2016-Jul-25 08:24N 36°33' W 075°34'1718.3
2016-Jul-25 07:28N 36°47' W 075°45'1414.7
2016-Jul-25 06:33N 36°56' W 075°58'1413.2
2016-Jul-25 05:27N 37°08' W 076°08'1516.0
2016-Jul-25 04:30N 37°23' W 076°05'1515.4
2016-Jul-25 03:34N 37°37' W 076°06'1716.8
2016-Jul-25 02:33N 37°54' W 076°10'1817.6
2016-Jul-25 01:33N 38°11' W 076°15'1817.6
2016-Jul-25 00:33N 38°28' W 076°23'1717.0
2016-Jul-24 23:33N 38°45' W 076°26'1717.2
2016-Jul-24 22:33N 39°02' W 076°23'1212.4
2016-Jul-24 21:34N 39°12' W 076°31'5 5.3
2016-Jul-24 20:31N 39°16' W 076°36'0 0.0
2016-Jul-24 14:13N 39°16' W 076°36'0 0.0
2016-Jul-24 13:32N 39°16' W 076°36'1 0.7
2016-Jul-24 12:34N 39°15' W 076°35'1111.2
2016-Jul-24 11:33N 39°08' W 076°24'1716.6
2016-Jul-24 10:33N 38°52' W 076°24'2019.8
2016-Jul-24 09:34N 38°32' W 076°25'2019.8
2016-Jul-24 08:33N 38°14' W 076°15'2020.0
2016-Jul-24 07:33N 37°54' W 076°09'5418.0
2016-Jul-24 04:33N 37°00' W 076°02'1715.5
2016-Jul-24 03:26N 36°49' W 075°45'10020.3
2016-Jul-23 22:31N 35°13' W 075°12'2321.9
2016-Jul-23 21:28N 34°54' W 075°27'2820.8
2016-Jul-23 20:07N 34°32' W 075°48'1221.1
2016-Jul-23 19:33N 34°24' W 075°58'  
2016-Jul-18 07:23N 36°46' W 075°44'1214.9
2016-Jul-18 06:33N 36°54' W 075°55'1615.8
2016-Jul-18 05:33N 37°07' W 076°08'1716.7
2016-Jul-18 04:33N 37°23' W 076°05'1515.5
2016-Jul-18 03:33N 37°39' W 076°07'1716.7
2016-Jul-18 02:32N 37°56' W 076°09'2217.9
2016-Jul-18 01:19N 38°16' W 076°17'1619.6
2016-Jul-18 00:29N 38°32' W 076°25'1617.1
2016-Jul-17 23:33N 38°48' W 076°25'1717.2
2016-Jul-17 22:33N 39°05' W 076°24'1211.7
2016-Jul-17 21:31N 39°14' W 076°33'3 0.9
2016-Jul-17 18:20N 39°16' W 076°36'0 0.0
2016-Jul-17 14:22N 39°16' W 076°36'1 0.7
2016-Jul-17 12:32N 39°15' W 076°35'1111.1
2016-Jul-17 11:32N 39°08' W 076°24'1515.5
2016-Jul-17 10:33N 38°53' W 076°24'2019.9
2016-Jul-17 09:33N 38°33' W 076°26'2020.5
2016-Jul-17 08:33N 38°14' W 076°15'1919.3
2016-Jul-17 07:34N 37°55' W 076°09'5217.1
2016-Jul-17 04:33N 37°04' W 076°05'1414.3
2016-Jul-17 03:33N 36°54' W 075°53'14917.8
2016-Jul-16 19:10N 34°24' W 075°58'6421.2
2016-Jul-16 16:10N 33°37' W 076°48'  

Dump ship's entire track history